Hi Hat, Kentucky
Current Conditions -  °F | °C
As of 11:15 AM on Wednesday 22 Oct 2014 (Local Time) from KPBX Reporting Station
Overcast Overcast  
Wind Chill: 42°   Ceiling: 1000
Heat Index: 45°   Visibility: 10mi
Dew Point: 41°   Wind: 6mph
Humidity: 87%   Direction: 290°WNW
Pressure: 30.22"   Gusts: NA
Location:  37.39°N, 82.73°W
Report Text: KPBX 221515Z AUTO 29005KT 10SM OVC010 07/05 A3022 RMK AO2 T00710051
Loading
Personal Weather Stations






























Interactive Weather Map
Tropical Storm Tracking
New forecast layout! Learn more

10-Day Weather Forecast

Advertisements
Track Severe Weather on mobile